Strona główna
METAR-TAF:

METAR-TAF

Lotnisko :

Millville, New Jersey, Stany Zjednoczone

Szerokość geograficzna: 39-21-58N, Długość geograficzna: 075-04-42W, wysokość: 26 m

Aktualna obserwacja pogody

Raport powstał 22 minut temu, godzina 23:54 UTC
Cisza
Temperatura 8°C
Wilgotność 87%
Ciśnienie 1017 hPa
Widzialność: 16.1 km
bezchmurnie

METAR: KMIV 042354Z AUTO 00000KT 10SM CLR 08/06 A3003 RMK AO2 SLP168 T00830056 10122 20083 53007

czas: 20:16 (00:16 UTC)

Prognoza

Raport powstał 56 minut temu, godzina 23:20 UTC
Prognoza ważna od 05 godzina 00 UTC do 05 godzina 24 UTC
Wiatr 3 kt z kierunków zmiennych
Widzialność: 10 km
Przerywane chmury na wysokości 3500 ft
Od 05 godzina 1400 UTC
Wiatr 6 kt od zachodnio-południowy zachód
Widzialność: 10 km
Przerywane chmury na wysokości 3500 ft

TAF: KMIV 042320Z 0500/0524 VRB03KT P6SM BKN035 FM051400 25006KT P6SM BKN035

Obserwacja i prognoza pogody dla ponad 4000 lotnisk (raport METAR i TAF).

Dostępne stacje oznaczono żółtymi i czerwonymi punktami na mapie.

Najedź kursorem aby zobaczyć nazwę stacji.

Kliknij aby zobaczyć obserwacje i prognozy pogody.

Aby zmienić mapę: kliknij na zielony przycisk z czarnym krzyżykiem, aby powiększyć; na zielony przycisk z myślnikiem, aby pomniejszyć; na zielone strzałki, aby przejść do map sąsiednich.


METAR-TAF: